createdAt,value
2022-11-11T00:01:19.339Z,4.80
2022-11-11T00:05:45.982Z,4.80
2022-11-11T00:10:32.497Z,4.70
2022-11-11T00:15:00.242Z,4.70
2022-11-11T00:29:48.397Z,4.70
2022-11-11T00:34:08.835Z,4.70
2022-11-11T00:38:49.904Z,4.70
2022-11-11T00:43:12.958Z,4.70
2022-11-11T00:48:05.191Z,4.70
2022-11-11T00:52:25.678Z,4.70
2022-11-11T00:56:47.140Z,4.80
2022-11-11T01:02:06.615Z,4.80
2022-11-11T01:06:27.207Z,4.80
2022-11-11T01:10:48.605Z,4.80
2022-11-11T01:15:35.542Z,4.70
2022-11-11T01:20:37.595Z,4.70
2022-11-11T01:24:58.183Z,4.70
2022-11-11T01:29:20.292Z,4.70
2022-11-11T01:33:47.582Z,4.70
2022-11-11T01:44:40.451Z,4.70
2022-11-11T01:49:40.122Z,4.70
2022-11-11T01:54:12.538Z,4.70
2022-11-11T01:58:39.222Z,4.70
2022-11-11T02:03:16.475Z,4.70
2022-11-11T02:07:50.786Z,4.70
2022-11-11T02:12:55.546Z,4.60
2022-11-11T02:17:18.113Z,4.60
2022-11-11T02:22:08.641Z,4.60
2022-11-11T02:26:32.110Z,4.60
2022-11-11T02:30:52.411Z,4.60
2022-11-11T02:40:04.231Z,4.70
2022-11-11T02:44:26.819Z,4.60
2022-11-11T02:48:47.100Z,4.60
2022-11-11T02:53:07.992Z,4.60
2022-11-11T02:57:43.998Z,4.60
2022-11-11T03:02:30.986Z,4.60
2022-11-11T03:06:51.785Z,4.60
2022-11-11T03:11:28.030Z,4.60
2022-11-11T03:15:49.834Z,4.60
2022-11-11T03:20:54.564Z,4.60
2022-11-11T03:25:47.937Z,4.60
2022-11-11T03:30:13.077Z,4.60
2022-11-11T03:34:35.153Z,4.60
2022-11-11T03:38:55.841Z,4.60
2022-11-11T03:43:17.717Z,4.50
2022-11-11T03:47:38.473Z,4.60
2022-11-11T03:51:59.201Z,4.60
2022-11-11T03:56:19.752Z,4.50
2022-11-11T04:00:44.833Z,4.50
2022-11-11T04:11:03.693Z,4.50
2022-11-11T04:15:49.235Z,4.40
2022-11-11T04:20:29.513Z,4.40
2022-11-11T04:25:24.790Z,4.40
2022-11-11T04:29:51.598Z,4.40
2022-11-11T04:34:12.203Z,4.40
2022-11-11T04:38:51.799Z,4.40
2022-11-11T04:43:11.961Z,4.40
2022-11-11T04:47:32.374Z,4.40
2022-11-11T04:52:34.415Z,4.40
2022-11-11T04:56:54.890Z,4.40
2022-11-11T05:01:51.486Z,4.50
2022-11-11T05:06:31.631Z,4.50
2022-11-11T05:10:52.996Z,4.50
2022-11-11T05:20:32.550Z,4.60
2022-11-11T05:25:15.720Z,4.70
2022-11-11T05:29:45.902Z,4.70
2022-11-11T05:34:07.612Z,4.80
2022-11-11T05:38:30.319Z,4.80
2022-11-11T05:42:54.295Z,4.90
2022-11-11T05:47:14.810Z,4.90
2022-11-11T05:52:25.223Z,4.90
2022-11-11T05:56:50.619Z,4.90
2022-11-11T06:01:10.778Z,4.90
2022-11-11T06:05:31.274Z,4.90
2022-11-11T06:10:28.971Z,4.90
2022-11-11T06:14:49.101Z,4.90
2022-11-11T06:19:09.761Z,5.10
2022-11-11T06:23:30.365Z,5.20
2022-11-11T06:28:07.365Z,5.30
2022-11-11T06:32:55.487Z,5.40
2022-11-11T06:37:16.249Z,5.60
2022-11-11T06:41:41.724Z,5.70
2022-11-11T06:46:02.199Z,5.80
2022-11-11T06:50:23.097Z,6.00
2022-11-11T06:54:43.477Z,6.10
2022-11-11T06:59:04.102Z,6.30
2022-11-11T07:03:25.825Z,6.40
2022-11-11T07:07:46.686Z,6.50
2022-11-11T07:12:10.631Z,6.70
2022-11-11T07:16:34.680Z,6.80
2022-11-11T07:20:56.203Z,6.90
2022-11-11T07:25:17.993Z,7.00
2022-11-11T07:29:48.761Z,7.10
2022-11-11T07:34:09.412Z,7.20
2022-11-11T07:38:30.304Z,7.30
2022-11-11T07:42:50.861Z,7.40
2022-11-11T07:47:11.083Z,7.60
2022-11-11T07:51:31.655Z,7.70
2022-11-11T07:55:56.684Z,7.80
2022-11-11T08:00:29.405Z,7.90
2022-11-11T08:05:15.962Z,8.00
2022-11-11T08:09:36.067Z,8.20
2022-11-11T08:13:56.636Z,8.40
2022-11-11T08:18:17.104Z,8.60
2022-11-11T08:22:39.055Z,8.80
2022-11-11T08:27:23.689Z,8.90
2022-11-11T08:31:46.914Z,9.10
2022-11-11T08:36:08.107Z,9.30
2022-11-11T08:40:28.987Z,9.40
2022-11-11T08:50:41.204Z,9.70
2022-11-11T08:55:01.975Z,9.70
2022-11-11T08:59:22.179Z,9.80
2022-11-11T09:03:44.253Z,9.90
2022-11-11T09:08:08.887Z,9.90
2022-11-11T09:12:29.645Z,10.00
2022-11-11T09:16:50.239Z,10.10
2022-11-11T09:21:10.764Z,10.20
2022-11-11T09:25:31.576Z,10.40
2022-11-11T09:29:52.771Z,10.50
2022-11-11T09:34:15.118Z,10.70
2022-11-11T09:38:35.445Z,10.90
2022-11-11T09:43:43.501Z,11.00
2022-11-11T09:48:40.662Z,11.10
2022-11-11T09:53:22.570Z,11.30
2022-11-11T09:57:51.759Z,11.40
2022-11-11T10:02:40.146Z,11.40
2022-11-11T10:07:21.359Z,11.60
2022-11-11T10:11:41.721Z,11.60
2022-11-11T10:16:41.335Z,11.80
2022-11-11T10:21:45.080Z,12.00
2022-11-11T10:26:56.328Z,12.00
2022-11-11T10:31:42.612Z,12.10
2022-11-11T10:41:56.859Z,12.30
2022-11-11T10:46:39.517Z,12.50
2022-11-11T10:51:07.489Z,12.70
2022-11-11T10:55:46.404Z,12.80
2022-11-11T11:00:19.428Z,12.70
2022-11-11T11:04:48.321Z,12.70
2022-11-11T11:09:18.134Z,12.80
2022-11-11T11:14:21.092Z,12.80
2022-11-11T11:19:21.145Z,12.80
2022-11-11T11:23:47.237Z,12.80
2022-11-11T11:28:12.607Z,12.60
2022-11-11T11:32:38.582Z,12.60
2022-11-11T11:37:14.290Z,12.50
2022-11-11T11:41:50.404Z,12.50
2022-11-11T11:46:27.991Z,12.40
2022-11-11T11:51:18.580Z,12.50
2022-11-11T11:55:55.454Z,12.50
2022-11-11T12:00:22.234Z,12.60
2022-11-11T12:05:22.161Z,12.80
2022-11-11T12:09:51.705Z,12.80
2022-11-11T12:14:38.562Z,12.80
2022-11-11T12:19:56.540Z,12.60
2022-11-11T12:24:30.238Z,12.60
2022-11-11T12:29:16.595Z,12.40
2022-11-11T12:33:47.624Z,12.30
2022-11-11T12:38:51.607Z,12.20
2022-11-11T12:43:36.518Z,12.20
2022-11-11T12:48:22.565Z,12.20
2022-11-11T12:53:23.265Z,12.20
2022-11-11T12:58:15.283Z,12.30
2022-11-11T13:03:03.503Z,12.30
2022-11-11T13:07:45.832Z,12.30
2022-11-11T13:12:22.492Z,12.50
2022-11-11T13:16:44.237Z,12.60
2022-11-11T13:21:36.493Z,12.70
2022-11-11T13:26:02.253Z,12.60
2022-11-11T13:30:49.549Z,12.70
2022-11-11T13:35:21.950Z,12.90
2022-11-11T13:39:51.930Z,13.00
2022-11-11T13:44:24.224Z,13.10
2022-11-11T13:48:49.219Z,13.30
2022-11-11T13:53:42.448Z,13.30
2022-11-11T13:58:33.599Z,13.30
2022-11-11T14:03:22.498Z,13.30
2022-11-11T14:07:49.358Z,13.40
2022-11-11T14:12:36.215Z,13.40
2022-11-11T14:17:01.135Z,13.40
2022-11-11T14:22:23.662Z,13.40
2022-11-11T14:26:44.055Z,13.40
2022-11-11T14:31:13.300Z,13.30
2022-11-11T14:35:40.706Z,13.30
2022-11-11T14:40:01.632Z,13.20
2022-11-11T14:44:27.916Z,13.10
2022-11-11T14:49:06.669Z,13.00
2022-11-11T14:53:38.776Z,12.80
2022-11-11T14:58:06.106Z,12.50
2022-11-11T15:02:34.062Z,12.20
2022-11-11T15:06:54.443Z,11.90
2022-11-11T15:11:51.173Z,11.70
2022-11-11T15:22:49.453Z,11.10
2022-11-11T15:27:21.136Z,10.80
2022-11-11T15:31:47.925Z,10.60
2022-11-11T15:36:27.033Z,10.40
2022-11-11T15:41:24.901Z,10.20
2022-11-11T15:46:05.171Z,10.10
2022-11-11T15:50:25.814Z,10.00
2022-11-11T15:54:54.930Z,9.80
2022-11-11T15:59:24.002Z,9.70
2022-11-11T16:03:46.780Z,9.60
2022-11-11T16:09:20.161Z,9.50
2022-11-11T16:14:47.720Z,9.40
2022-11-11T16:25:31.385Z,9.20
2022-11-11T16:35:45.569Z,9.10
2022-11-11T16:40:48.496Z,9.00
2022-11-11T16:45:21.957Z,8.90
2022-11-11T16:50:03.071Z,8.80
2022-11-11T16:55:19.311Z,8.70
2022-11-11T16:59:53.717Z,8.60
2022-11-11T17:04:14.790Z,8.60
2022-11-11T17:08:36.324Z,8.50
2022-11-11T17:12:56.929Z,8.40
2022-11-11T17:17:17.788Z,8.40
2022-11-11T17:21:38.339Z,8.40
2022-11-11T17:26:01.213Z,8.30
2022-11-11T17:30:21.859Z,8.30
2022-11-11T17:34:42.323Z,8.30
2022-11-11T17:39:03.894Z,8.30
2022-11-11T17:43:25.519Z,8.30
2022-11-11T17:47:46.199Z,8.30
2022-11-11T17:52:06.521Z,8.30
2022-11-11T17:56:35.998Z,8.30
2022-11-11T18:01:14.941Z,8.20
2022-11-11T18:05:41.592Z,8.20
2022-11-11T18:10:02.763Z,8.20
2022-11-11T18:14:29.738Z,8.20
2022-11-11T18:18:54.585Z,8.10
2022-11-11T18:23:41.429Z,8.10
2022-11-11T18:28:56.261Z,8.10
2022-11-11T18:33:45.098Z,8.10
2022-11-11T18:38:05.686Z,8.00
2022-11-11T18:42:26.559Z,8.00
2022-11-11T18:46:47.093Z,8.00
2022-11-11T18:51:36.334Z,8.00
2022-11-11T18:56:02.582Z,8.00
2022-11-11T19:00:22.747Z,8.00
2022-11-11T19:04:44.139Z,7.90
2022-11-11T19:09:12.025Z,7.90
2022-11-11T19:13:41.702Z,7.90
2022-11-11T19:18:07.832Z,8.00
2022-11-11T19:22:28.298Z,8.00
2022-11-11T19:26:50.062Z,8.00
2022-11-11T19:32:02.375Z,8.00
2022-11-11T19:36:48.619Z,8.00
2022-11-11T19:41:18.716Z,8.00
2022-11-11T19:45:48.307Z,8.00
2022-11-11T19:50:09.125Z,8.10
2022-11-11T19:54:48.015Z,8.10
2022-11-11T19:59:10.596Z,8.20
2022-11-11T20:03:41.051Z,8.20
2022-11-11T20:08:01.479Z,8.30
2022-11-11T20:12:22.371Z,8.30
2022-11-11T20:16:43.391Z,8.30
2022-11-11T20:21:06.777Z,8.40
2022-11-11T20:26:33.524Z,8.40
2022-11-11T20:31:19.399Z,8.50
2022-11-11T20:35:52.160Z,8.50
2022-11-11T20:40:13.711Z,8.60
2022-11-11T20:44:34.654Z,8.60
2022-11-11T20:48:57.020Z,8.60
2022-11-11T20:53:17.336Z,8.60
2022-11-11T20:57:40.425Z,8.60
2022-11-11T21:02:03.090Z,8.50
2022-11-11T21:06:25.318Z,8.50
2022-11-11T21:11:46.451Z,8.50
2022-11-11T21:16:32.475Z,8.60
2022-11-11T21:20:52.858Z,8.50
2022-11-11T21:26:03.323Z,8.50
2022-11-11T21:30:23.955Z,8.50
2022-11-11T21:34:44.426Z,8.60
2022-11-11T21:39:10.491Z,8.60
2022-11-11T21:44:13.252Z,8.60
2022-11-11T21:48:59.294Z,8.60
2022-11-11T21:53:20.054Z,8.60
2022-11-11T21:58:05.129Z,8.50
2022-11-11T22:02:25.750Z,8.50
2022-11-11T22:06:46.536Z,8.50
2022-11-11T22:11:12.183Z,8.50
2022-11-11T22:15:58.274Z,8.50
2022-11-11T22:20:18.871Z,8.50
2022-11-11T22:24:39.470Z,8.40
2022-11-11T22:29:22.731Z,8.50
2022-11-11T22:33:47.704Z,8.40
2022-11-11T22:38:10.965Z,8.40
2022-11-11T22:42:35.590Z,8.40
2022-11-11T22:46:57.169Z,8.40
2022-11-11T22:51:18.436Z,8.40
2022-11-11T22:55:39.106Z,8.40
2022-11-11T23:00:01.701Z,8.50
2022-11-11T23:04:39.606Z,8.50
2022-11-11T23:09:05.184Z,8.50
2022-11-11T23:13:30.202Z,8.50
2022-11-11T23:17:50.844Z,8.50
2022-11-11T23:22:13.611Z,8.50
2022-11-11T23:26:36.589Z,8.50
2022-11-11T23:31:07.385Z,8.50
2022-11-11T23:36:20.289Z,8.60
2022-11-11T23:40:46.692Z,8.60
2022-11-11T23:45:13.595Z,8.60
2022-11-11T23:49:35.189Z,8.70
2022-11-11T23:54:01.933Z,8.60
2022-11-11T23:58:47.295Z,8.60
